createdAt,value
2023-03-18T00:00:51.392Z,6.80
2023-03-18T00:03:19.341Z,6.63
2023-03-18T00:05:47.320Z,6.77
2023-03-18T00:08:15.290Z,6.27
2023-03-18T00:10:43.909Z,6.33
2023-03-18T00:13:12.110Z,6.70
2023-03-18T00:15:41.483Z,6.47
2023-03-18T00:18:09.716Z,6.17
2023-03-18T00:20:40.274Z,6.80
2023-03-18T00:23:08.984Z,6.90
2023-03-18T00:25:37.760Z,6.43
2023-03-18T00:28:06.445Z,6.90
2023-03-18T00:30:34.910Z,6.30
2023-03-18T00:33:04.244Z,6.80
2023-03-18T00:35:32.397Z,6.20
2023-03-18T00:38:00.450Z,6.73
2023-03-18T00:40:42.856Z,7.73
2023-03-18T00:43:12.706Z,6.63
2023-03-18T00:45:42.730Z,6.93
2023-03-18T00:48:12.127Z,6.70
2023-03-18T00:50:40.088Z,6.60
2023-03-18T00:53:08.332Z,7.47
2023-03-18T00:55:36.422Z,7.43
2023-03-18T00:58:04.370Z,7.53
2023-03-18T01:00:32.566Z,8.07
2023-03-18T01:03:01.428Z,7.80
2023-03-18T01:05:38.168Z,8.93
2023-03-18T01:08:06.661Z,9.03
2023-03-18T01:10:34.658Z,10.03
2023-03-18T01:13:04.008Z,8.97
2023-03-18T01:15:31.931Z,9.63
2023-03-18T01:17:59.882Z,9.80
2023-03-18T01:20:29.191Z,10.13
2023-03-18T01:23:00.768Z,10.00
2023-03-18T01:25:28.888Z,9.90
2023-03-18T01:27:56.911Z,9.77
2023-03-18T01:30:26.293Z,10.00
2023-03-18T01:32:55.547Z,11.77
2023-03-18T01:35:24.176Z,9.97
2023-03-18T01:37:53.268Z,10.07
2023-03-18T01:40:23.800Z,10.43
2023-03-18T01:42:57.260Z,11.43
2023-03-18T01:45:29.202Z,9.47
2023-03-18T01:47:59.860Z,10.87
2023-03-18T01:50:32.303Z,11.63
2023-03-18T01:53:04.086Z,9.93
2023-03-18T01:55:34.122Z,11.23
2023-03-18T01:58:06.084Z,10.03
2023-03-18T02:00:36.106Z,10.53
2023-03-18T02:03:06.180Z,10.63
2023-03-18T02:05:35.815Z,10.40
2023-03-18T02:08:03.836Z,10.37
2023-03-18T02:10:34.306Z,11.13
2023-03-18T02:13:06.740Z,10.57
2023-03-18T02:15:45.734Z,10.97
2023-03-18T02:18:17.881Z,11.10
2023-03-18T02:21:01.737Z,11.13
2023-03-18T02:23:42.637Z,10.50
2023-03-18T02:26:22.755Z,10.30
2023-03-18T02:28:56.248Z,11.20
2023-03-18T02:31:24.857Z,11.53
2023-03-18T02:33:53.753Z,11.93
2023-03-18T02:36:27.740Z,11.03
2023-03-18T02:39:00.197Z,11.13
2023-03-18T02:41:31.710Z,12.47
2023-03-18T02:44:01.722Z,12.33
2023-03-18T02:46:43.988Z,12.20
2023-03-18T02:49:11.965Z,11.67
2023-03-18T02:51:41.884Z,12.30
2023-03-18T02:54:13.783Z,12.17
2023-03-18T02:56:43.543Z,11.70
2023-03-18T02:59:14.307Z,12.37
2023-03-18T03:01:44.501Z,13.03
2023-03-18T03:04:13.670Z,12.73
2023-03-18T03:06:42.634Z,12.37
2023-03-18T03:09:15.298Z,12.70
2023-03-18T03:11:44.974Z,12.17
2023-03-18T03:14:19.386Z,13.00
2023-03-18T03:16:50.431Z,12.37
2023-03-18T03:19:18.477Z,12.10
2023-03-18T03:21:46.786Z,13.43
2023-03-18T03:24:14.762Z,12.27
2023-03-18T03:26:42.666Z,13.53
2023-03-18T03:29:12.590Z,13.27
2023-03-18T03:31:42.085Z,12.33
2023-03-18T03:34:10.663Z,13.43
2023-03-18T03:36:39.616Z,12.67
2023-03-18T03:39:07.634Z,13.10
2023-03-18T03:41:36.594Z,13.10
2023-03-18T03:44:04.725Z,12.90
2023-03-18T03:46:32.848Z,13.37
2023-03-18T03:49:02.332Z,12.67
2023-03-18T03:51:30.361Z,12.67
2023-03-18T03:53:58.880Z,13.17
2023-03-18T03:56:27.105Z,13.00
2023-03-18T03:58:55.041Z,12.57
2023-03-18T04:01:27.227Z,12.73
2023-03-18T04:03:57.325Z,13.80
2023-03-18T04:06:27.144Z,13.73
2023-03-18T04:09:01.965Z,12.87
2023-03-18T04:11:29.971Z,13.63
2023-03-18T04:13:58.198Z,12.57
2023-03-18T04:16:28.418Z,11.70
2023-03-18T04:18:56.858Z,13.13
2023-03-18T04:21:27.148Z,13.20
2023-03-18T04:23:57.142Z,12.50
2023-03-18T04:26:25.991Z,12.63
2023-03-18T04:28:54.824Z,12.63
2023-03-18T04:31:24.487Z,13.03
2023-03-18T04:33:52.588Z,13.03
2023-03-18T04:36:21.071Z,13.27
2023-03-18T04:38:50.390Z,12.10
2023-03-18T04:41:18.633Z,12.33
2023-03-18T04:43:46.719Z,12.90
2023-03-18T04:46:14.921Z,12.40
2023-03-18T04:48:45.284Z,12.47
2023-03-18T04:51:14.137Z,13.07
2023-03-18T04:53:43.158Z,12.60
2023-03-18T04:56:13.682Z,12.87
2023-03-18T04:58:48.148Z,11.90
2023-03-18T05:01:20.811Z,12.03
2023-03-18T05:03:49.190Z,13.17
2023-03-18T05:06:23.705Z,12.07
2023-03-18T05:09:01.917Z,12.97
2023-03-18T05:11:35.374Z,11.97
2023-03-18T05:14:15.577Z,12.17
2023-03-18T05:16:47.248Z,12.50
2023-03-18T05:19:15.639Z,11.53
2023-03-18T05:21:50.765Z,12.37
2023-03-18T05:24:20.090Z,12.63
2023-03-18T05:26:49.558Z,12.07
2023-03-18T05:29:19.176Z,13.33
2023-03-18T05:31:58.671Z,11.03
2023-03-18T05:34:27.888Z,12.40
2023-03-18T05:36:57.643Z,12.17
2023-03-18T05:39:26.640Z,11.83
2023-03-18T05:41:56.008Z,12.07
2023-03-18T05:44:28.148Z,12.50
2023-03-18T05:46:59.025Z,11.90
2023-03-18T05:49:51.820Z,11.80
2023-03-18T05:52:24.573Z,12.73
2023-03-18T05:54:55.640Z,12.57
2023-03-18T05:57:29.662Z,12.33
2023-03-18T06:00:01.693Z,11.37
2023-03-18T06:02:33.255Z,12.30
2023-03-18T06:05:01.516Z,13.10
2023-03-18T06:07:30.508Z,12.60
2023-03-18T06:09:58.700Z,12.17
2023-03-18T06:12:28.436Z,13.03
2023-03-18T06:14:58.156Z,11.97
2023-03-18T06:17:27.612Z,11.83
2023-03-18T06:19:56.886Z,12.77
2023-03-18T06:22:25.926Z,12.63
2023-03-18T06:24:53.876Z,13.60
2023-03-18T06:27:22.318Z,12.53
2023-03-18T06:29:56.969Z,13.00
2023-03-18T06:32:24.981Z,13.73
2023-03-18T06:34:53.045Z,13.23
2023-03-18T06:37:21.616Z,13.77
2023-03-18T06:39:50.744Z,13.57
2023-03-18T06:42:19.118Z,13.40
2023-03-18T06:45:12.421Z,12.63
2023-03-18T06:47:51.913Z,13.80
2023-03-18T06:50:20.594Z,13.07
2023-03-18T06:52:49.359Z,13.37
2023-03-18T06:55:20.314Z,13.63
2023-03-18T06:57:48.643Z,14.30
2023-03-18T07:00:22.821Z,13.73
2023-03-18T07:02:51.159Z,14.57
2023-03-18T07:05:20.785Z,13.13
2023-03-18T07:07:49.466Z,13.83
2023-03-18T07:10:21.679Z,14.73
2023-03-18T07:12:52.212Z,13.77
2023-03-18T07:15:23.329Z,13.97
2023-03-18T07:17:54.678Z,13.53
2023-03-18T07:20:24.058Z,14.30
2023-03-18T07:22:52.452Z,13.97
2023-03-18T07:25:22.859Z,14.30
2023-03-18T07:27:52.033Z,14.07
2023-03-18T07:30:21.692Z,13.80
2023-03-18T07:32:51.203Z,13.37
2023-03-18T07:35:19.527Z,13.83
2023-03-18T07:37:47.413Z,13.60
2023-03-18T07:40:16.738Z,12.93
2023-03-18T07:42:44.722Z,12.77
2023-03-18T07:45:13.834Z,12.33
2023-03-18T07:47:43.717Z,11.63
2023-03-18T07:50:13.503Z,11.47
2023-03-18T07:52:41.912Z,12.07
2023-03-18T07:55:10.715Z,11.30
2023-03-18T07:57:38.657Z,10.90
2023-03-18T08:00:08.504Z,11.00
2023-03-18T08:02:43.566Z,10.23
2023-03-18T08:05:11.886Z,11.03
2023-03-18T08:07:39.880Z,10.50
2023-03-18T08:10:09.913Z,10.80
2023-03-18T08:12:51.508Z,10.10
2023-03-18T08:15:20.863Z,9.63
2023-03-18T08:17:50.159Z,9.97
2023-03-18T08:20:18.361Z,10.10
2023-03-18T08:22:46.673Z,9.07
2023-03-18T08:25:14.700Z,8.90
2023-03-18T08:27:42.696Z,8.93
2023-03-18T08:30:11.790Z,8.00
2023-03-18T08:32:39.710Z,8.00
2023-03-18T08:35:11.145Z,8.20
2023-03-18T08:37:39.353Z,8.43
2023-03-18T08:40:09.728Z,7.77
2023-03-18T08:42:37.695Z,8.30
2023-03-18T08:45:06.446Z,8.30
2023-03-18T08:47:34.469Z,7.70
2023-03-18T08:50:02.901Z,7.73
2023-03-18T08:52:32.308Z,7.00
2023-03-18T08:55:00.287Z,7.50
2023-03-18T08:57:28.308Z,7.30
2023-03-18T08:59:56.241Z,7.33
2023-03-18T09:02:24.826Z,6.87
2023-03-18T09:04:54.484Z,6.53
2023-03-18T09:07:22.768Z,6.20
2023-03-18T09:09:52.020Z,6.13
2023-03-18T09:12:20.050Z,6.20
2023-03-18T09:14:48.122Z,5.73
2023-03-18T09:17:16.036Z,6.50
2023-03-18T09:19:43.945Z,5.83
2023-03-18T09:22:12.287Z,5.73
2023-03-18T09:24:40.626Z,5.23
2023-03-18T09:27:10.327Z,5.37
2023-03-18T09:29:38.323Z,4.73
2023-03-18T09:32:06.791Z,4.70
2023-03-18T09:34:34.749Z,5.07
2023-03-18T09:37:02.708Z,4.80
2023-03-18T09:39:30.660Z,5.03
2023-03-18T09:42:17.977Z,4.17
2023-03-18T09:44:46.181Z,3.97
2023-03-18T09:47:25.465Z,4.67
2023-03-18T09:50:05.409Z,4.40
2023-03-18T09:52:37.736Z,4.07
2023-03-18T09:55:12.529Z,4.30
2023-03-18T09:57:45.904Z,4.40
2023-03-18T10:00:21.400Z,4.50
2023-03-18T10:02:54.185Z,4.20
2023-03-18T10:05:26.609Z,3.97
2023-03-18T10:07:58.412Z,3.93
2023-03-18T10:10:30.527Z,4.07
2023-03-18T10:13:06.920Z,3.23
2023-03-18T10:15:41.383Z,3.17
2023-03-18T10:18:15.205Z,3.67
2023-03-18T10:20:53.461Z,4.03
2023-03-18T10:23:34.929Z,3.60
2023-03-18T10:26:06.877Z,3.30
2023-03-18T10:28:57.418Z,3.20
2023-03-18T10:31:37.911Z,3.30
2023-03-18T10:34:09.515Z,3.33
2023-03-18T10:36:43.661Z,3.47
2023-03-18T10:39:16.320Z,2.43
2023-03-18T10:41:49.938Z,2.83
2023-03-18T10:44:23.564Z,3.50
2023-03-18T10:47:00.214Z,2.70
2023-03-18T10:49:31.760Z,2.83
2023-03-18T10:52:06.039Z,3.57
2023-03-18T10:54:38.922Z,2.73
2023-03-18T10:57:07.042Z,3.30
2023-03-18T10:59:36.413Z,3.03
2023-03-18T11:02:07.899Z,2.90
2023-03-18T11:04:42.373Z,2.77
2023-03-18T11:07:18.640Z,2.93
2023-03-18T11:09:47.398Z,2.67
2023-03-18T11:12:19.332Z,2.53
2023-03-18T11:14:50.874Z,2.50
2023-03-18T11:17:27.347Z,2.63
2023-03-18T11:20:05.782Z,2.53
2023-03-18T11:22:35.099Z,2.10
2023-03-18T11:25:06.679Z,2.10
2023-03-18T11:27:39.472Z,2.23
2023-03-18T11:30:33.634Z,2.23
2023-03-18T11:33:16.241Z,2.57
2023-03-18T11:35:48.215Z,2.30
2023-03-18T11:38:18.991Z,2.30
2023-03-18T11:40:47.400Z,2.00
2023-03-18T11:43:20.507Z,1.73
2023-03-18T11:45:55.543Z,2.20
2023-03-18T11:48:31.360Z,2.03
2023-03-18T11:51:09.118Z,1.90
2023-03-18T11:53:48.773Z,2.00
2023-03-18T11:56:24.281Z,1.80
2023-03-18T11:59:09.339Z,1.80
2023-03-18T12:01:45.741Z,1.77
2023-03-18T12:04:52.382Z,2.07
2023-03-18T12:07:36.438Z,2.03
2023-03-18T12:10:19.697Z,1.80
2023-03-18T12:13:03.581Z,2.00
2023-03-18T12:15:42.663Z,1.87
2023-03-18T12:18:25.759Z,2.50
2023-03-18T12:20:54.951Z,2.30
2023-03-18T12:23:35.351Z,2.00
2023-03-18T12:26:07.217Z,2.20
2023-03-18T12:29:09.489Z,2.37
2023-03-18T12:31:57.231Z,2.17
2023-03-18T12:34:43.473Z,2.40
2023-03-18T12:37:24.793Z,2.20
2023-03-18T12:40:27.695Z,2.10
2023-03-18T12:43:14.135Z,2.30
2023-03-18T12:45:46.261Z,2.53
2023-03-18T12:48:17.689Z,2.37
2023-03-18T12:50:52.387Z,2.00
2023-03-18T12:53:25.814Z,1.97
2023-03-18T12:55:58.606Z,1.90
2023-03-18T12:58:29.404Z,1.80
2023-03-18T13:01:06.833Z,2.00
2023-03-18T13:03:37.758Z,2.00
2023-03-18T13:06:13.197Z,1.70
2023-03-18T13:09:00.656Z,1.60
2023-03-18T13:11:49.360Z,1.60
2023-03-18T13:14:25.804Z,1.90
2023-03-18T13:16:56.199Z,2.00
2023-03-18T13:19:24.258Z,1.70
2023-03-18T13:22:04.230Z,1.87
2023-03-18T13:24:53.998Z,1.90
2023-03-18T13:27:48.528Z,1.90
2023-03-18T13:30:25.702Z,2.00
2023-03-18T13:33:21.738Z,1.90
2023-03-18T13:36:20.395Z,1.70
2023-03-18T13:39:10.092Z,1.90
2023-03-18T13:42:02.556Z,1.83
2023-03-18T13:44:37.373Z,1.70
2023-03-18T13:47:09.144Z,1.47
2023-03-18T13:49:39.629Z,1.40
2023-03-18T13:52:25.310Z,1.73
2023-03-18T13:54:55.104Z,1.50
2023-03-18T13:57:47.942Z,1.77
2023-03-18T14:00:35.792Z,1.80
2023-03-18T14:03:14.148Z,1.87
2023-03-18T14:05:43.277Z,1.87
2023-03-18T14:08:38.243Z,1.70
2023-03-18T14:11:45.326Z,1.90
2023-03-18T14:14:58.273Z,1.90
2023-03-18T14:17:43.001Z,1.93
2023-03-18T14:20:24.943Z,1.70
2023-03-18T14:22:54.945Z,1.97
2023-03-18T14:25:42.955Z,2.30
2023-03-18T14:28:20.944Z,1.80
2023-03-18T14:30:57.104Z,2.10
2023-03-18T14:33:36.320Z,2.03
2023-03-18T14:36:09.796Z,2.20
2023-03-18T14:38:43.319Z,2.10
2023-03-18T14:41:28.638Z,2.10
2023-03-18T14:44:08.810Z,1.73
2023-03-18T14:46:42.830Z,1.77
2023-03-18T14:49:36.792Z,1.70
2023-03-18T14:52:14.396Z,1.50
2023-03-18T14:54:45.829Z,1.60
2023-03-18T14:57:14.220Z,1.87
2023-03-18T14:59:43.492Z,1.70
2023-03-18T15:02:23.096Z,1.40
2023-03-18T15:04:54.327Z,1.43
2023-03-18T15:07:26.399Z,1.70
2023-03-18T15:09:55.035Z,1.57
2023-03-18T15:12:30.548Z,1.50
2023-03-18T15:15:00.133Z,1.50
2023-03-18T15:17:28.368Z,1.47
2023-03-18T15:20:00.060Z,1.20
2023-03-18T15:22:30.837Z,1.40
2023-03-18T15:25:02.226Z,1.40
2023-03-18T15:27:32.970Z,1.50
2023-03-18T15:30:04.908Z,1.40
2023-03-18T15:32:34.394Z,1.60
2023-03-18T15:35:16.566Z,1.50
2023-03-18T15:37:45.922Z,1.77
2023-03-18T15:40:32.752Z,1.70
2023-03-18T15:43:06.497Z,1.70
2023-03-18T15:45:36.352Z,1.47
2023-03-18T15:48:09.081Z,1.50
2023-03-18T15:50:38.188Z,1.20
2023-03-18T15:53:18.801Z,1.30
2023-03-18T15:55:51.057Z,1.50
2023-03-18T15:58:28.268Z,1.40
2023-03-18T16:00:58.485Z,1.50
2023-03-18T16:03:31.516Z,1.30
2023-03-18T16:06:00.492Z,1.33
2023-03-18T16:08:28.589Z,1.23
2023-03-18T16:10:59.041Z,1.50
2023-03-18T16:13:29.682Z,1.30
2023-03-18T16:15:59.039Z,1.50
2023-03-18T16:18:27.286Z,1.40
2023-03-18T16:20:55.205Z,1.50
2023-03-18T16:23:23.142Z,1.30
2023-03-18T16:25:53.096Z,1.40
2023-03-18T16:28:23.304Z,1.50
2023-03-18T16:30:53.263Z,1.40
2023-03-18T16:33:23.938Z,1.30
2023-03-18T16:35:56.990Z,1.50
2023-03-18T16:38:25.524Z,1.60
2023-03-18T16:40:55.033Z,1.70
2023-03-18T16:43:27.174Z,1.70
2023-03-18T16:45:58.583Z,1.73
2023-03-18T16:48:28.959Z,1.63
2023-03-18T16:50:59.213Z,1.73
2023-03-18T16:53:31.610Z,1.60
2023-03-18T16:56:02.850Z,1.50
2023-03-18T16:58:34.992Z,1.20
2023-03-18T17:01:04.824Z,1.30
2023-03-18T17:03:34.713Z,1.60
2023-03-18T17:06:02.908Z,1.40
2023-03-18T17:08:31.116Z,1.30
2023-03-18T17:11:02.930Z,1.53
2023-03-18T17:13:33.706Z,1.33
2023-03-18T17:16:01.884Z,1.50
2023-03-18T17:18:30.160Z,1.50
2023-03-18T17:20:59.533Z,1.50
2023-03-18T17:23:29.073Z,1.50
2023-03-18T17:25:59.484Z,1.47
2023-03-18T17:28:34.448Z,1.63
2023-03-18T17:31:03.023Z,1.60
2023-03-18T17:33:33.172Z,1.70
2023-03-18T17:36:02.940Z,2.00
2023-03-18T17:38:32.214Z,2.10
2023-03-18T17:41:03.866Z,1.90
2023-03-18T17:43:33.967Z,2.00
2023-03-18T17:46:03.630Z,1.90
2023-03-18T17:48:33.428Z,2.03
2023-03-18T17:51:05.217Z,2.47
2023-03-18T17:53:37.114Z,2.10
2023-03-18T17:56:06.188Z,2.10
2023-03-18T17:58:35.418Z,2.20
2023-03-18T18:01:06.886Z,2.33
2023-03-18T18:03:36.799Z,2.63
2023-03-18T18:06:06.761Z,2.33
2023-03-18T18:08:36.137Z,2.50
2023-03-18T18:11:17.784Z,2.40
2023-03-18T18:13:45.886Z,2.20
2023-03-18T18:16:14.455Z,2.20
2023-03-18T18:18:42.625Z,2.47
2023-03-18T18:21:15.537Z,2.23
2023-03-18T18:23:45.271Z,2.67
2023-03-18T18:26:15.783Z,3.20
2023-03-18T18:28:45.519Z,3.30
2023-03-18T18:31:14.570Z,3.43
2023-03-18T18:33:44.119Z,3.60
2023-03-18T18:36:14.838Z,3.20
2023-03-18T18:38:43.089Z,3.10
2023-03-18T18:41:11.470Z,3.30
2023-03-18T18:43:39.395Z,3.60
2023-03-18T18:46:14.561Z,3.67
2023-03-18T18:48:44.832Z,3.20
2023-03-18T18:51:18.160Z,3.60
2023-03-18T18:53:47.499Z,3.43
2023-03-18T18:56:18.745Z,3.60
2023-03-18T18:58:47.236Z,3.57
2023-03-18T19:01:16.058Z,3.30
2023-03-18T19:03:44.217Z,3.10
2023-03-18T19:06:27.202Z,3.20
2023-03-18T19:08:56.309Z,3.23
2023-03-18T19:11:24.997Z,2.90
2023-03-18T19:13:54.997Z,2.90
2023-03-18T19:16:30.112Z,2.30
2023-03-18T19:18:58.462Z,2.10
2023-03-18T19:21:28.045Z,2.00
2023-03-18T19:23:58.141Z,1.47
2023-03-18T19:26:27.005Z,1.40
2023-03-18T19:28:59.289Z,1.20
2023-03-18T19:31:30.593Z,0.93
2023-03-18T19:34:00.690Z,0.90
2023-03-18T19:36:32.040Z,0.90
2023-03-18T19:39:01.724Z,1.00
2023-03-18T19:41:30.218Z,0.70
2023-03-18T19:44:03.898Z,1.00
2023-03-18T19:46:38.465Z,1.30
2023-03-18T19:49:16.776Z,0.90
2023-03-18T19:51:46.859Z,0.90
2023-03-18T19:54:24.802Z,0.80
2023-03-18T19:57:00.954Z,0.90
2023-03-18T19:59:37.336Z,1.30
2023-03-18T20:02:19.768Z,1.30
2023-03-18T20:04:49.339Z,1.57
2023-03-18T20:07:20.088Z,1.10
2023-03-18T20:09:48.315Z,1.20
2023-03-18T20:12:23.680Z,1.30
2023-03-18T20:14:51.834Z,1.30
2023-03-18T20:17:33.238Z,1.10
2023-03-18T20:20:01.446Z,1.40
2023-03-18T20:22:33.862Z,1.40
2023-03-18T20:25:02.181Z,1.10
2023-03-18T20:27:31.498Z,1.20
2023-03-18T20:29:59.498Z,1.10
2023-03-18T20:32:27.628Z,1.13
2023-03-18T20:34:55.706Z,1.10
2023-03-18T20:37:29.580Z,1.10
2023-03-18T20:39:58.969Z,1.23
2023-03-18T20:42:27.200Z,1.10
2023-03-18T20:44:55.258Z,1.13
2023-03-18T20:47:23.300Z,0.90
2023-03-18T20:49:51.217Z,1.57
2023-03-18T20:52:25.783Z,1.10
2023-03-18T20:54:53.880Z,1.27
2023-03-18T20:57:23.158Z,1.20
2023-03-18T20:59:51.413Z,1.57
2023-03-18T21:02:28.864Z,1.80
2023-03-18T21:04:57.476Z,1.90
2023-03-18T21:07:26.092Z,2.07
2023-03-18T21:09:54.372Z,1.80
2023-03-18T21:12:23.828Z,1.60
2023-03-18T21:14:51.900Z,1.70
2023-03-18T21:17:21.023Z,1.70
2023-03-18T21:19:49.737Z,1.60
2023-03-18T21:22:22.561Z,1.83
2023-03-18T21:24:50.918Z,1.60
2023-03-18T21:27:23.616Z,1.80
2023-03-18T21:29:53.939Z,1.80
2023-03-18T21:32:24.285Z,1.70
2023-03-18T21:34:53.168Z,1.90
2023-03-18T21:37:23.123Z,1.70
2023-03-18T21:39:51.580Z,1.90
2023-03-18T21:42:22.998Z,2.00
2023-03-18T21:44:52.708Z,1.97
2023-03-18T21:47:22.684Z,1.80
2023-03-18T21:49:51.453Z,1.73
2023-03-18T21:52:23.353Z,1.90
2023-03-18T21:54:51.348Z,1.70
2023-03-18T21:57:21.990Z,1.60
2023-03-18T21:59:50.217Z,1.40
2023-03-18T22:02:30.610Z,1.43
2023-03-18T22:05:00.183Z,1.60
2023-03-18T22:07:29.714Z,1.37
2023-03-18T22:09:58.316Z,2.00
2023-03-18T22:12:28.573Z,1.50
2023-03-18T22:14:57.059Z,1.70
2023-03-18T22:17:27.074Z,1.70
2023-03-18T22:19:57.381Z,1.37
2023-03-18T22:22:29.293Z,1.50
2023-03-18T22:24:57.172Z,1.63
2023-03-18T22:27:26.676Z,1.70
2023-03-18T22:29:56.234Z,1.60
2023-03-18T22:32:34.301Z,1.47
2023-03-18T22:35:04.285Z,1.43
2023-03-18T22:37:32.245Z,1.43
2023-03-18T22:40:01.175Z,1.40
2023-03-18T22:42:29.397Z,1.60
2023-03-18T22:44:57.557Z,1.70
2023-03-18T22:47:26.939Z,1.57
2023-03-18T22:49:54.901Z,1.50
2023-03-18T22:52:27.821Z,1.60
2023-03-18T22:54:59.097Z,1.40
2023-03-18T22:57:28.159Z,1.43
2023-03-18T22:59:58.165Z,1.47
2023-03-18T23:02:28.772Z,1.30
2023-03-18T23:04:57.365Z,1.50
2023-03-18T23:07:29.722Z,1.77
2023-03-18T23:09:59.211Z,1.50
2023-03-18T23:12:30.169Z,1.30
2023-03-18T23:14:58.848Z,1.30
2023-03-18T23:17:29.107Z,1.60
2023-03-18T23:19:57.727Z,1.67
2023-03-18T23:22:29.772Z,1.37
2023-03-18T23:24:58.115Z,1.40
2023-03-18T23:27:27.860Z,1.50
2023-03-18T23:29:56.787Z,1.57
2023-03-18T23:32:25.212Z,1.70
2023-03-18T23:34:53.582Z,1.80
2023-03-18T23:37:21.845Z,1.83
2023-03-18T23:39:51.082Z,1.80
2023-03-18T23:42:20.368Z,2.10
2023-03-18T23:44:48.481Z,2.00
2023-03-18T23:47:16.938Z,1.90
2023-03-18T23:49:44.843Z,2.13
2023-03-18T23:52:14.783Z,2.20
2023-03-18T23:54:42.912Z,2.67
2023-03-18T23:57:12.974Z,2.60
2023-03-18T23:59:41.157Z,2.50
